createdAt,value
2023-02-05T00:06:03.141Z,60.67
2023-02-05T00:08:35.028Z,62.67
2023-02-05T00:14:08.608Z,63.00
2023-02-05T00:19:42.846Z,48.00
2023-02-05T00:25:26.151Z,47.33
2023-02-05T00:27:55.349Z,41.33
2023-02-05T00:30:46.500Z,54.00
2023-02-05T00:38:50.861Z,50.00
2023-02-05T00:41:21.336Z,45.00
2023-02-05T00:43:49.707Z,47.67
2023-02-05T00:46:24.206Z,38.00
2023-02-05T00:54:21.117Z,91.25
2023-02-05T00:56:55.022Z,69.67
2023-02-05T00:59:28.231Z,59.33
2023-02-05T01:02:00.133Z,56.00
2023-02-05T01:04:33.644Z,50.33
2023-02-05T01:07:04.278Z,61.33
2023-02-05T01:09:35.781Z,49.33
2023-02-05T01:12:05.802Z,46.33
2023-02-05T01:14:35.957Z,44.67
2023-02-05T01:17:06.456Z,57.33
2023-02-05T01:19:37.733Z,51.33
2023-02-05T01:22:06.983Z,82.33
2023-02-05T01:24:40.861Z,88.33
2023-02-05T01:27:13.284Z,60.67
2023-02-05T01:29:55.841Z,44.33
2023-02-05T01:35:11.242Z,69.33
2023-02-05T01:37:39.806Z,81.00
2023-02-05T01:40:16.133Z,93.67
2023-02-05T01:42:47.348Z,67.67
2023-02-05T01:45:24.397Z,58.00
2023-02-05T01:47:59.338Z,41.67
2023-02-05T01:50:52.723Z,54.33
2023-02-05T01:53:28.420Z,57.00
2023-02-05T01:56:03.291Z,60.67
2023-02-05T01:58:40.897Z,47.33
2023-02-05T02:10:49.378Z,36.33
2023-02-05T02:13:22.352Z,48.33
2023-02-05T02:16:01.772Z,26.33
2023-02-05T02:18:44.129Z,47.33
2023-02-05T02:27:47.603Z,58.33
2023-02-05T02:30:33.871Z,44.00
2023-02-05T02:33:24.640Z,45.67
2023-02-05T02:35:58.827Z,49.33
2023-02-05T02:38:35.755Z,52.33
2023-02-05T02:41:32.330Z,45.00
2023-02-05T02:44:14.957Z,44.00
2023-02-05T02:46:49.698Z,54.67
2023-02-05T02:49:31.213Z,37.67
2023-02-05T02:52:02.320Z,43.00
2023-02-05T02:54:34.997Z,48.33
2023-02-05T02:57:08.971Z,56.00
2023-02-05T02:59:40.383Z,52.33
2023-02-05T03:02:12.762Z,41.67
2023-02-05T03:04:46.063Z,60.67
2023-02-05T03:07:20.747Z,64.33
2023-02-05T03:10:04.898Z,47.00
2023-02-05T03:12:36.579Z,49.67
2023-02-05T03:15:06.279Z,42.33
2023-02-05T03:17:35.174Z,44.33
2023-02-05T03:20:21.335Z,55.67
2023-02-05T03:22:49.088Z,50.33
2023-02-05T03:25:22.025Z,51.67
2023-02-05T03:27:53.837Z,51.33
2023-02-05T03:30:27.621Z,37.00
2023-02-05T03:33:27.920Z,41.67
2023-02-05T03:40:04.860Z,56.00
2023-02-05T03:42:58.616Z,53.67
2023-02-05T03:49:04.795Z,62.33
2023-02-05T03:52:04.960Z,65.00
2023-02-05T03:54:49.554Z,49.33
2023-02-05T03:57:29.068Z,57.00
2023-02-05T04:00:01.134Z,57.67
2023-02-05T04:02:32.790Z,51.67
2023-02-05T04:05:08.260Z,59.00
2023-02-05T04:07:54.685Z,51.67
2023-02-05T04:19:44.060Z,64.00
2023-02-05T04:22:11.796Z,55.67
2023-02-05T04:24:44.643Z,58.67
2023-02-05T04:27:12.584Z,50.00
2023-02-05T04:29:40.425Z,56.33
2023-02-05T04:32:08.252Z,61.33
2023-02-05T04:34:36.144Z,48.67
2023-02-05T04:37:04.141Z,62.00
2023-02-05T04:39:32.343Z,62.00
2023-02-05T04:42:02.150Z,63.67
2023-02-05T04:44:30.092Z,62.67
2023-02-05T04:46:58.942Z,65.67
2023-02-05T04:52:29.751Z,76.00
2023-02-05T04:54:59.151Z,61.67
2023-02-05T04:57:32.486Z,73.00
2023-02-05T05:00:01.219Z,67.33
2023-02-05T05:02:31.945Z,50.00
2023-02-05T05:05:01.014Z,63.00
2023-02-05T05:07:35.931Z,64.00
2023-02-05T05:10:11.776Z,75.00
2023-02-05T05:12:43.553Z,74.67
2023-02-05T05:18:09.690Z,76.33
2023-02-05T05:20:42.445Z,80.67
2023-02-05T05:23:17.669Z,63.33
2023-02-05T05:25:50.503Z,66.00
2023-02-05T05:28:31.559Z,67.67
2023-02-05T05:31:18.143Z,61.00
2023-02-05T05:33:58.006Z,63.00
2023-02-05T05:36:29.949Z,64.33
2023-02-05T05:39:22.075Z,62.00
2023-02-05T05:45:08.490Z,53.00
2023-02-05T05:47:48.321Z,59.67
2023-02-05T05:50:22.490Z,57.00
2023-02-05T05:53:00.460Z,62.33
2023-02-05T05:55:31.828Z,66.67
2023-02-05T05:58:02.112Z,60.67
2023-02-05T06:03:29.349Z,68.00
2023-02-05T06:06:15.692Z,59.33
2023-02-05T06:11:42.925Z,66.00
2023-02-05T06:14:13.030Z,73.00
2023-02-05T06:16:46.720Z,68.00
2023-02-05T06:19:14.750Z,63.00
2023-02-05T06:21:42.733Z,56.00
2023-02-05T06:24:10.487Z,61.33
2023-02-05T06:26:38.303Z,48.67
2023-02-05T06:29:09.657Z,39.75
2023-02-05T06:31:37.355Z,35.00
2023-02-05T06:34:07.468Z,31.25
2023-02-05T06:36:36.871Z,23.75
2023-02-05T06:39:06.246Z,27.75
2023-02-05T06:41:34.599Z,29.00
2023-02-05T06:44:08.328Z,23.25
2023-02-05T06:46:36.996Z,29.50
2023-02-05T06:49:05.930Z,37.00
2023-02-05T06:51:37.340Z,50.50
2023-02-05T06:54:05.131Z,56.25
2023-02-05T06:56:33.618Z,56.00
2023-02-05T06:59:02.143Z,74.67
2023-02-05T07:01:30.692Z,47.00
2023-02-05T07:03:58.783Z,69.00
2023-02-05T07:06:26.977Z,61.33
2023-02-05T07:08:56.517Z,74.67
2023-02-05T07:11:24.722Z,51.00
2023-02-05T07:13:52.755Z,59.75
2023-02-05T07:56:29.227Z,10.75
2023-02-05T08:04:57.763Z,17.00
2023-02-05T08:07:27.000Z,21.50
2023-02-05T08:09:58.384Z,17.00
2023-02-05T08:18:19.384Z,11.00
2023-02-05T08:20:51.765Z,10.25
2023-02-05T08:23:20.571Z,12.75
2023-02-05T08:25:49.170Z,13.50
2023-02-05T08:28:17.637Z,12.25
2023-02-05T08:30:46.194Z,11.25
2023-02-05T08:33:14.481Z,8.00
2023-02-05T08:35:42.953Z,13.25
2023-02-05T08:38:12.624Z,8.75
2023-02-05T08:40:40.744Z,12.00
2023-02-05T08:43:08.846Z,12.75
2023-02-05T08:45:37.240Z,15.00
2023-02-05T08:48:05.686Z,6.25
2023-02-05T08:50:33.925Z,10.50
2023-02-05T09:17:42.060Z,13.00
2023-02-05T09:20:10.945Z,14.25
2023-02-05T09:22:39.436Z,21.75
2023-02-05T09:25:08.277Z,14.25
2023-02-05T09:27:36.541Z,12.50
2023-02-05T11:07:58.918Z,16.75
2023-02-05T11:10:29.491Z,15.50
2023-02-05T11:13:18.187Z,16.25
2023-02-05T11:15:55.460Z,18.50
2023-02-05T11:18:28.122Z,14.75
2023-02-05T11:20:59.784Z,18.75
2023-02-05T11:23:39.472Z,17.00
2023-02-05T11:26:16.638Z,2.00
2023-02-05T11:38:46.134Z,13.00
2023-02-05T11:41:26.802Z,18.75
2023-02-05T11:43:56.525Z,18.25
2023-02-05T12:24:00.178Z,23.50
2023-02-05T12:26:35.217Z,20.50
2023-02-05T12:40:02.088Z,20.25
2023-02-05T12:43:06.403Z,22.25
2023-02-05T12:45:49.795Z,19.25
2023-02-05T12:48:42.516Z,16.75
2023-02-05T12:57:59.795Z,24.25
2023-02-05T13:00:49.144Z,22.00
2023-02-05T13:17:49.076Z,13.00
2023-02-05T13:20:56.471Z,26.25
2023-02-05T13:23:43.341Z,21.50
2023-02-05T13:26:24.851Z,19.75
2023-02-05T13:29:07.955Z,20.25
2023-02-05T13:31:40.345Z,20.25
2023-02-05T13:34:10.739Z,18.00
2023-02-05T13:36:53.645Z,16.50
2023-02-05T13:39:46.026Z,22.00
2023-02-05T13:42:29.619Z,16.50
2023-02-05T13:45:20.942Z,14.75
2023-02-05T13:48:18.606Z,21.50
2023-02-05T13:51:20.640Z,21.50
2023-02-05T13:54:12.843Z,18.00
2023-02-05T14:14:18.099Z,17.75
2023-02-05T14:16:50.054Z,26.00
2023-02-05T14:19:23.226Z,22.75
2023-02-05T14:22:10.240Z,15.25
2023-02-05T14:24:41.624Z,18.75
2023-02-05T14:27:29.266Z,26.75
2023-02-05T14:29:59.880Z,20.00
2023-02-05T14:32:27.649Z,24.75
2023-02-05T14:35:27.442Z,28.50
2023-02-05T14:38:03.377Z,31.75
2023-02-05T14:40:35.973Z,28.50
2023-02-05T14:43:31.483Z,32.25
2023-02-05T14:46:06.888Z,29.00
2023-02-05T14:48:46.924Z,29.75
2023-02-05T14:51:26.000Z,28.25
2023-02-05T14:54:00.633Z,27.00
2023-02-05T14:56:37.873Z,25.25
2023-02-05T14:59:30.172Z,21.00
2023-02-05T15:02:00.190Z,24.00
2023-02-05T15:04:34.361Z,22.75
2023-02-05T15:07:15.135Z,13.00
2023-02-05T15:09:46.271Z,17.50
2023-02-05T15:12:54.179Z,13.25
2023-02-05T15:15:42.566Z,20.50
2023-02-05T15:21:53.714Z,22.00
2023-02-05T15:39:41.376Z,16.75
2023-02-05T15:42:15.941Z,31.00
2023-02-05T15:44:43.955Z,20.25
2023-02-05T15:51:11.021Z,22.00
2023-02-05T15:56:44.692Z,29.25
2023-02-05T15:59:42.177Z,22.50
2023-02-05T16:15:14.081Z,26.75
2023-02-05T16:18:05.424Z,24.75
2023-02-05T16:20:45.745Z,9.75
2023-02-05T16:33:11.476Z,22.75
2023-02-05T16:35:46.710Z,25.75
2023-02-05T16:38:21.664Z,25.00
2023-02-05T16:44:31.192Z,19.75
2023-02-05T17:06:21.858Z,29.75
2023-02-05T17:09:00.081Z,21.25
2023-02-05T17:25:21.193Z,26.25
2023-02-05T17:27:49.885Z,30.00
2023-02-05T17:30:19.259Z,26.67
2023-02-05T17:32:50.795Z,27.00
2023-02-05T17:35:27.246Z,30.25
2023-02-05T17:37:55.275Z,34.00
2023-02-05T17:40:23.860Z,23.25
2023-02-05T17:42:52.785Z,33.33
2023-02-05T17:45:24.752Z,35.00
2023-02-05T17:47:53.659Z,28.25
2023-02-05T17:50:22.199Z,25.00
2023-02-05T17:52:52.494Z,27.50
2023-02-05T17:55:22.033Z,21.00
2023-02-05T17:57:50.433Z,28.75
2023-02-05T18:00:24.292Z,24.75
2023-02-05T18:03:12.841Z,27.75
2023-02-05T18:06:15.796Z,39.00
2023-02-05T18:11:31.477Z,27.00
2023-02-05T18:14:24.147Z,25.00
2023-02-05T18:16:59.241Z,25.25
2023-02-05T18:19:29.915Z,29.75
2023-02-05T18:25:02.514Z,33.00
2023-02-05T18:27:31.661Z,25.50
2023-02-05T18:30:01.067Z,36.00
2023-02-05T18:32:30.436Z,40.67
2023-02-05T18:34:59.441Z,28.25
2023-02-05T18:40:15.347Z,32.33
2023-02-05T18:42:48.280Z,40.33
2023-02-05T18:45:16.732Z,39.67
2023-02-05T18:47:45.133Z,47.67
2023-02-05T18:50:13.204Z,32.00
2023-02-05T18:52:41.052Z,24.67
2023-02-05T18:55:09.427Z,35.33
2023-02-05T18:57:37.324Z,33.67
2023-02-05T19:00:06.760Z,62.00
2023-02-05T19:02:37.910Z,48.00
2023-02-05T19:05:07.097Z,41.67
2023-02-05T19:07:39.446Z,45.33
2023-02-05T19:10:11.864Z,50.00
2023-02-05T19:12:39.958Z,32.00
2023-02-05T19:15:09.395Z,41.00
2023-02-05T19:17:37.770Z,38.00
2023-02-05T19:20:06.808Z,37.00
2023-02-05T19:22:35.448Z,33.50
2023-02-05T19:25:03.337Z,32.50
2023-02-05T19:27:34.030Z,42.00
2023-02-05T19:30:04.500Z,29.00
2023-02-05T19:32:36.035Z,43.33
2023-02-05T19:35:06.925Z,29.67
2023-02-05T19:40:22.430Z,23.50
2023-02-05T19:42:51.514Z,40.00
2023-02-05T19:45:29.401Z,35.75
2023-02-05T19:47:58.591Z,39.75
2023-02-05T19:50:29.282Z,33.25
2023-02-05T19:59:11.236Z,23.25
2023-02-05T20:01:43.949Z,31.00
2023-02-05T20:13:47.103Z,47.75
2023-02-05T20:19:29.460Z,38.67
2023-02-05T20:21:57.463Z,43.00
2023-02-05T20:24:26.096Z,56.67
2023-02-05T20:33:18.618Z,24.67
2023-02-05T20:35:47.597Z,40.50
2023-02-05T20:38:19.073Z,47.67
2023-02-05T20:40:47.959Z,39.67
2023-02-05T20:43:15.885Z,52.33
2023-02-05T20:45:43.952Z,40.67
2023-02-05T20:48:22.842Z,46.33
2023-02-05T20:51:24.780Z,35.50
2023-02-05T20:56:59.542Z,35.75
2023-02-05T21:08:12.943Z,34.00
2023-02-05T21:10:41.441Z,43.00
2023-02-05T21:13:13.872Z,42.00
2023-02-05T21:18:52.760Z,42.00
2023-02-05T21:21:36.602Z,35.67
2023-02-05T21:24:18.980Z,38.00
2023-02-05T21:26:49.129Z,37.00
2023-02-05T21:29:20.770Z,45.00
2023-02-05T21:31:53.283Z,46.33
2023-02-05T21:37:31.191Z,45.67
2023-02-05T21:40:08.968Z,26.25
2023-02-05T21:42:37.481Z,39.00
2023-02-05T21:45:06.372Z,45.33
2023-02-05T21:47:35.712Z,42.67
2023-02-05T21:52:55.484Z,42.25
2023-02-05T21:55:32.093Z,34.00
2023-02-05T21:58:02.999Z,29.75
2023-02-05T22:00:39.794Z,9.67
2023-02-05T22:03:09.749Z,33.50
2023-02-05T22:05:39.560Z,36.50
2023-02-05T22:08:11.747Z,38.00
2023-02-05T22:10:42.185Z,37.67
2023-02-05T22:13:10.006Z,39.67
2023-02-05T22:15:38.263Z,36.00
2023-02-05T22:18:06.548Z,29.67
2023-02-05T22:20:34.411Z,31.00
2023-02-05T22:23:02.326Z,44.67
2023-02-05T22:25:35.450Z,39.00
2023-02-05T22:28:16.091Z,41.67
2023-02-05T22:34:01.094Z,45.33
2023-02-05T22:36:36.122Z,45.33
2023-02-05T22:39:20.174Z,47.33
2023-02-05T22:41:58.644Z,50.00
2023-02-05T22:44:26.522Z,48.00
2023-02-05T22:46:54.586Z,46.00
2023-02-05T22:49:22.523Z,36.25
2023-02-05T22:51:52.447Z,43.00
2023-02-05T22:54:20.458Z,46.67
2023-02-05T22:56:48.893Z,32.50
2023-02-05T22:59:16.743Z,34.67
2023-02-05T23:01:46.560Z,31.33
2023-02-05T23:04:18.696Z,32.00
2023-02-05T23:06:57.392Z,46.00
2023-02-05T23:09:25.754Z,45.67
2023-02-05T23:11:56.848Z,49.33
2023-02-05T23:14:26.420Z,33.00
2023-02-05T23:16:57.634Z,44.67
2023-02-05T23:19:33.037Z,50.33
2023-02-05T23:22:02.470Z,56.33
2023-02-05T23:24:38.638Z,49.67
2023-02-05T23:27:09.544Z,33.33
2023-02-05T23:29:38.909Z,52.00
2023-02-05T23:32:13.577Z,59.67
2023-02-05T23:34:42.486Z,47.33
2023-02-05T23:37:12.509Z,59.00
2023-02-05T23:39:41.666Z,55.67
2023-02-05T23:42:11.089Z,54.67
2023-02-05T23:44:38.950Z,45.33
2023-02-05T23:47:06.905Z,48.33
2023-02-05T23:49:35.625Z,50.00
2023-02-05T23:52:04.585Z,56.67
2023-02-05T23:54:37.629Z,44.00
2023-02-05T23:57:07.848Z,47.33
2023-02-05T23:59:37.251Z,45.33
